sensor_id;sensor_type;location;lat;lon;timestamp;P1;P2;P0
56360;PMS7003;42611;51.132;13.588;2023-04-03T00:04:06;1.6;1.2;
56360;PMS7003;42611;51.132;13.588;2023-04-03T00:09:11;1.2;0.8;
56360;PMS7003;42611;51.132;13.588;2023-04-03T00:14:01;1.4;0.6;
56360;PMS7003;42611;51.132;13.588;2023-04-03T00:20:01;1.5;0.6;
56360;PMS7003;42611;51.132;13.588;2023-04-03T00:35:06;1.9;1.3;
56360;PMS7003;42611;51.132;13.588;2023-04-03T00:40:06;1.7;1.5;
56360;PMS7003;42611;51.132;13.588;2023-04-03T00:45:30;1.3;1.3;
56360;PMS7003;42611;51.132;13.588;2023-04-03T00:50:01;1.2;1.2;
56360;PMS7003;42611;51.132;13.588;2023-04-03T01:00:09;0.7;0.7;
56360;PMS7003;42611;51.132;13.588;2023-04-03T01:10:07;1.3;1.0;
56360;PMS7003;42611;51.132;13.588;2023-04-03T01:15:10;1.5;0.8;
56360;PMS7003;42611;51.132;13.588;2023-04-03T01:20:14;1.8;0.8;
56360;PMS7003;42611;51.132;13.588;2023-04-03T01:25:06;1.9;0.8;
56360;PMS7003;42611;51.132;13.588;2023-04-03T01:30:01;1.9;1.0;
56360;PMS7003;42611;51.132;13.588;2023-04-03T01:35:01;1.6;1.0;
56360;PMS7003;42611;51.132;13.588;2023-04-03T01:40:01;1.7;1.1;
56360;PMS7003;42611;51.132;13.588;2023-04-03T01:45:02;1.5;1.3;
56360;PMS7003;42611;51.132;13.588;2023-04-03T01:50:06;1.8;1.3;
56360;PMS7003;42611;51.132;13.588;2023-04-03T01:55:01;2.2;1.6;
56360;PMS7003;42611;51.132;13.588;2023-04-03T02:00:02;2.3;1.6;
56360;PMS7003;42611;51.132;13.588;2023-04-03T02:10:03;2.6;1.9;
56360;PMS7003;42611;51.132;13.588;2023-04-03T02:16:07;2.9;1.9;
56360;PMS7003;42611;51.132;13.588;2023-04-03T02:21:01;2.6;1.6;
56360;PMS7003;42611;51.132;13.588;2023-04-03T02:26:03;2.5;1.4;
56360;PMS7003;42611;51.132;13.588;2023-04-03T02:36:07;2.1;1.0;
56360;PMS7003;42611;51.132;13.588;2023-04-03T02:41:02;1.8;1.0;
56360;PMS7003;42611;51.132;13.588;2023-04-03T02:46:01;1.9;1.2;
56360;PMS7003;42611;51.132;13.588;2023-04-03T02:51:03;1.7;1.2;
56360;PMS7003;42611;51.132;13.588;2023-04-03T02:57:01;1.5;1.2;
56360;PMS7003;42611;51.132;13.588;2023-04-03T03:07:06;1.6;1.6;
56360;PMS7003;42611;51.132;13.588;2023-04-03T03:12:01;1.5;1.5;
56360;PMS7003;42611;51.132;13.588;2023-04-03T03:17:01;1.6;1.6;
56360;PMS7003;42611;51.132;13.588;2023-04-03T03:22:06;1.7;1.6;
56360;PMS7003;42611;51.132;13.588;2023-04-03T03:32:01;1.4;1.3;
56360;PMS7003;42611;51.132;13.588;2023-04-03T03:42:06;1.2;1.2;
56360;PMS7003;42611;51.132;13.588;2023-04-03T03:47:06;1.5;1.0;
56360;PMS7003;42611;51.132;13.588;2023-04-03T03:52:01;1.6;1.0;
56360;PMS7003;42611;51.132;13.588;2023-04-03T03:57:02;1.5;1.0;
56360;PMS7003;42611;51.132;13.588;2023-04-03T04:02:01;1.8;1.0;
56360;PMS7003;42611;51.132;13.588;2023-04-03T04:07:01;2.1;1.4;
56360;PMS7003;42611;51.132;13.588;2023-04-03T04:12:01;2.0;1.8;
56360;PMS7003;42611;51.132;13.588;2023-04-03T04:17:01;2.4;2.0;
56360;PMS7003;42611;51.132;13.588;2023-04-03T04:22:02;3.0;2.5;
56360;PMS7003;42611;51.132;13.588;2023-04-03T04:27:02;2.8;2.4;
56360;PMS7003;42611;51.132;13.588;2023-04-03T04:37:02;2.6;2.2;
56360;PMS7003;42611;51.132;13.588;2023-04-03T04:42:06;2.1;2.0;
56360;PMS7003;42611;51.132;13.588;2023-04-03T04:47:03;1.8;1.8;
56360;PMS7003;42611;51.132;13.588;2023-04-03T04:52:02;1.7;1.7;
56360;PMS7003;42611;51.132;13.588;2023-04-03T05:02:01;1.8;1.5;
56360;PMS7003;42611;51.132;13.588;2023-04-03T05:12:01;2.2;1.3;
56360;PMS7003;42611;51.132;13.588;2023-04-03T05:17:01;2.6;1.6;
56360;PMS7003;42611;51.132;13.588;2023-04-03T05:22:01;2.4;1.8;
56360;PMS7003;42611;51.132;13.588;2023-04-03T05:27:01;2.2;1.6;
56360;PMS7003;42611;51.132;13.588;2023-04-03T05:32:01;2.4;1.8;
56360;PMS7003;42611;51.132;13.588;2023-04-03T05:37:07;2.2;1.8;
56360;PMS7003;42611;51.132;13.588;2023-04-03T05:42:01;1.9;1.4;
56360;PMS7003;42611;51.132;13.588;2023-04-03T05:47:02;2.0;1.3;
56360;PMS7003;42611;51.132;13.588;2023-04-03T05:57:02;1.8;1.2;
56360;PMS7003;42611;51.132;13.588;2023-04-03T06:02:01;1.4;1.2;
56360;PMS7003;42611;51.132;13.588;2023-04-03T06:12:06;1.3;1.3;
56360;PMS7003;42611;51.132;13.588;2023-04-03T06:17:07;1.9;1.3;
56360;PMS7003;42611;51.132;13.588;2023-04-03T06:22:06;2.0;1.4;
56360;PMS7003;42611;51.132;13.588;2023-04-03T06:27:01;2.3;1.4;
56360;PMS7003;42611;51.132;13.588;2023-04-03T06:32:06;2.4;1.5;
56360;PMS7003;42611;51.132;13.588;2023-04-03T06:37:01;2.6;1.3;
56360;PMS7003;42611;51.132;13.588;2023-04-03T06:52:06;3.1;1.8;
56360;PMS7003;42611;51.132;13.588;2023-04-03T06:57:01;3.6;1.9;
56360;PMS7003;42611;51.132;13.588;2023-04-03T07:02:01;3.8;2.3;
56360;PMS7003;42611;51.132;13.588;2023-04-03T07:07:02;3.6;2.2;
56360;PMS7003;42611;51.132;13.588;2023-04-03T07:12:01;3.9;2.5;
56360;PMS7003;42611;51.132;13.588;2023-04-03T07:17:01;3.3;2.5;
56360;PMS7003;42611;51.132;13.588;2023-04-03T07:22:02;3.2;2.3;
56360;PMS7003;42611;51.132;13.588;2023-04-03T07:27:01;3.4;2.6;
56360;PMS7003;42611;51.132;13.588;2023-04-03T07:32:02;3.8;3.0;
56360;PMS7003;42611;51.132;13.588;2023-04-03T07:37:02;5.2;3.6;
56360;PMS7003;42611;51.132;13.588;2023-04-03T07:42:06;6.0;4.1;
56360;PMS7003;42611;51.132;13.588;2023-04-03T07:47:01;6.4;4.8;
56360;PMS7003;42611;51.132;13.588;2023-04-03T07:52:06;6.7;5.0;
56360;PMS7003;42611;51.132;13.588;2023-04-03T07:57:02;6.4;5.0;
56360;PMS7003;42611;51.132;13.588;2023-04-03T08:02:01;5.5;4.7;
56360;PMS7003;42611;51.132;13.588;2023-04-03T08:08:06;4.9;4.4;
56360;PMS7003;42611;51.132;13.588;2023-04-03T08:13:06;4.8;4.5;
56360;PMS7003;42611;51.132;13.588;2023-04-03T08:18:01;4.6;4.4;
56360;PMS7003;42611;51.132;13.588;2023-04-03T08:28:01;3.9;3.6;
56360;PMS7003;42611;51.132;13.588;2023-04-03T08:33:07;4.2;3.9;
56360;PMS7003;42611;51.132;13.588;2023-04-03T08:38:07;3.6;3.3;
56360;PMS7003;42611;51.132;13.588;2023-04-03T08:43:03;3.4;3.3;
56360;PMS7003;42611;51.132;13.588;2023-04-03T08:48:11;3.3;3.2;
56360;PMS7003;42611;51.132;13.588;2023-04-03T08:53:10;4.0;4.0;
56360;PMS7003;42611;51.132;13.588;2023-04-03T08:58:02;4.4;4.2;
56360;PMS7003;42611;51.132;13.588;2023-04-03T09:03:14;4.6;4.3;
56360;PMS7003;42611;51.132;13.588;2023-04-03T09:08:07;4.4;4.0;
56360;PMS7003;42611;51.132;13.588;2023-04-03T09:13:04;4.5;4.1;
56360;PMS7003;42611;51.132;13.588;2023-04-03T09:19:24;4.3;3.9;
56360;PMS7003;42611;51.132;13.588;2023-04-03T09:24:06;4.0;3.6;
56360;PMS7003;42611;51.132;13.588;2023-04-03T09:29:02;4.1;3.5;
56360;PMS7003;42611;51.132;13.588;2023-04-03T09:34:02;4.0;3.5;
56360;PMS7003;42611;51.132;13.588;2023-04-03T09:39:11;3.8;3.3;
56360;PMS7003;42611;51.132;13.588;2023-04-03T09:44:01;3.4;2.8;
56360;PMS7003;42611;51.132;13.588;2023-04-03T09:49:11;2.9;2.5;
56360;PMS7003;42611;51.132;13.588;2023-04-03T09:54:40;2.5;2.3;
56360;PMS7003;42611;51.132;13.588;2023-04-03T09:59:14;2.8;2.4;
56360;PMS7003;42611;51.132;13.588;2023-04-03T10:04:14;2.5;2.0;
56360;PMS7003;42611;51.132;13.588;2023-04-03T10:14:03;2.2;1.7;
56360;PMS7003;42611;51.132;13.588;2023-04-03T10:19:41;2.6;2.0;
56360;PMS7003;42611;51.132;13.588;2023-04-03T10:24:18;2.0;1.6;
56360;PMS7003;42611;51.132;13.588;2023-04-03T10:29:26;2.2;2.0;
56360;PMS7003;42611;51.132;13.588;2023-04-03T10:54:09;1.2;1.2;
56360;PMS7003;42611;51.132;13.588;2023-04-03T10:59:23;1.1;1.1;
56360;PMS7003;42611;51.132;13.588;2023-04-03T11:04:11;1.0;1.0;
56360;PMS7003;42611;51.132;13.588;2023-04-03T11:09:02;1.2;1.2;
56360;PMS7003;42611;51.132;13.588;2023-04-03T11:14:35;1.7;1.3;
56360;PMS7003;42611;51.132;13.588;2023-04-03T11:19:42;2.4;1.6;
56360;PMS7003;42611;51.132;13.588;2023-04-03T11:24:16;2.3;1.4;
56360;PMS7003;42611;51.132;13.588;2023-04-03T11:29:08;2.5;1.6;
56360;PMS7003;42611;51.132;13.588;2023-04-03T11:39:07;2.2;1.7;
56360;PMS7003;42611;51.132;13.588;2023-04-03T11:44:29;1.6;1.6;
56360;PMS7003;42611;51.132;13.588;2023-04-03T11:54:45;1.8;1.8;
56360;PMS7003;42611;51.132;13.588;2023-04-03T12:04:08;1.7;1.7;
56360;PMS7003;42611;51.132;13.588;2023-04-03T12:15:25;2.6;2.2;
56360;PMS7003;42611;51.132;13.588;2023-04-03T12:20:01;3.0;2.1;
56360;PMS7003;42611;51.132;13.588;2023-04-03T12:25:01;3.3;2.3;
56360;PMS7003;42611;51.132;13.588;2023-04-03T12:30:13;3.6;2.4;
56360;PMS7003;42611;51.132;13.588;2023-04-03T12:35:30;3.1;2.3;
56360;PMS7003;42611;51.132;13.588;2023-04-03T12:45:18;2.6;2.1;
56360;PMS7003;42611;51.132;13.588;2023-04-03T12:50:17;2.2;1.8;
56360;PMS7003;42611;51.132;13.588;2023-04-03T12:55:01;2.0;1.8;
56360;PMS7003;42611;51.132;13.588;2023-04-03T13:00:27;2.3;2.1;
56360;PMS7003;42611;51.132;13.588;2023-04-03T13:05:07;2.2;2.2;
56360;PMS7003;42611;51.132;13.588;2023-04-03T13:10:14;2.1;2.0;
56360;PMS7003;42611;51.132;13.588;2023-04-03T13:15:18;2.2;2.2;
56360;PMS7003;42611;51.132;13.588;2023-04-03T13:25:07;2.0;2.0;
56360;PMS7003;42611;51.132;13.588;2023-04-03T13:30:53;2.1;1.7;
56360;PMS7003;42611;51.132;13.588;2023-04-03T13:35:25;2.6;2.0;
56360;PMS7003;42611;51.132;13.588;2023-04-03T13:40:10;2.8;2.0;
56360;PMS7003;42611;51.132;13.588;2023-04-03T13:45:17;2.7;1.8;
56360;PMS7003;42611;51.132;13.588;2023-04-03T13:50:16;2.6;1.7;
56360;PMS7003;42611;51.132;13.588;2023-04-03T13:55:52;2.4;1.7;
56360;PMS7003;42611;51.132;13.588;2023-04-03T14:05:02;4.0;3.4;
56360;PMS7003;42611;51.132;13.588;2023-04-03T14:10:01;4.7;4.1;
56360;PMS7003;42611;51.132;13.588;2023-04-03T14:15:14;4.6;4.0;
56360;PMS7003;42611;51.132;13.588;2023-04-03T14:20:01;5.1;4.7;
56360;PMS7003;42611;51.132;13.588;2023-04-03T14:25:06;4.7;4.1;
56360;PMS7003;42611;51.132;13.588;2023-04-03T14:35:01;4.7;4.1;
56360;PMS7003;42611;51.132;13.588;2023-04-03T14:40:02;5.1;4.5;
56360;PMS7003;42611;51.132;13.588;2023-04-03T14:45:05;4.6;4.0;
56360;PMS7003;42611;51.132;13.588;2023-04-03T14:50:02;4.1;3.7;
56360;PMS7003;42611;51.132;13.588;2023-04-03T14:55:02;8.5;8.0;
56360;PMS7003;42611;51.132;13.588;2023-04-03T15:00:02;8.8;8.2;
56360;PMS7003;42611;51.132;13.588;2023-04-03T15:05:02;9.4;8.6;
56360;PMS7003;42611;51.132;13.588;2023-04-03T15:10:33;9.7;8.5;
56360;PMS7003;42611;51.132;13.588;2023-04-03T15:15:05;8.8;8.0;
56360;PMS7003;42611;51.132;13.588;2023-04-03T15:20:02;3.6;3.0;
56360;PMS7003;42611;51.132;13.588;2023-04-03T15:26:02;4.0;2.6;
56360;PMS7003;42611;51.132;13.588;2023-04-03T15:31:02;3.2;2.0;
56360;PMS7003;42611;51.132;13.588;2023-04-03T15:36:34;2.9;2.2;
56360;PMS7003;42611;51.132;13.588;2023-04-03T15:41:01;3.5;2.7;
56360;PMS7003;42611;51.132;13.588;2023-04-03T15:46:01;5.3;4.6;
56360;PMS7003;42611;51.132;13.588;2023-04-03T15:51:01;4.9;4.9;
56360;PMS7003;42611;51.132;13.588;2023-04-03T15:56:01;5.4;5.1;
56360;PMS7003;42611;51.132;13.588;2023-04-03T16:01:01;5.6;5.4;
56360;PMS7003;42611;51.132;13.588;2023-04-03T16:06:01;5.4;5.0;
56360;PMS7003;42611;51.132;13.588;2023-04-03T16:11:01;4.4;3.7;
56360;PMS7003;42611;51.132;13.588;2023-04-03T16:16:01;4.2;3.3;
56360;PMS7003;42611;51.132;13.588;2023-04-03T16:21:01;4.6;3.7;
56360;PMS7003;42611;51.132;13.588;2023-04-03T16:26:01;4.8;3.9;
56360;PMS7003;42611;51.132;13.588;2023-04-03T16:31:01;5.0;4.0;
56360;PMS7003;42611;51.132;13.588;2023-04-03T16:36:01;4.2;3.3;
56360;PMS7003;42611;51.132;13.588;2023-04-03T16:41:01;4.4;3.8;
56360;PMS7003;42611;51.132;13.588;2023-04-03T16:46:01;3.6;3.2;
56360;PMS7003;42611;51.132;13.588;2023-04-03T16:51:01;3.2;2.9;
56360;PMS7003;42611;51.132;13.588;2023-04-03T16:56:02;2.9;2.7;
56360;PMS7003;42611;51.132;13.588;2023-04-03T17:01:10;2.8;2.8;
56360;PMS7003;42611;51.132;13.588;2023-04-03T17:06:01;2.5;2.4;
56360;PMS7003;42611;51.132;13.588;2023-04-03T17:11:01;2.7;2.4;
56360;PMS7003;42611;51.132;13.588;2023-04-03T17:16:02;2.6;2.3;
56360;PMS7003;42611;51.132;13.588;2023-04-03T17:21:01;2.8;2.3;
56360;PMS7003;42611;51.132;13.588;2023-04-03T17:26:02;2.5;2.0;
56360;PMS7003;42611;51.132;13.588;2023-04-03T17:31:02;2.4;2.0;
56360;PMS7003;42611;51.132;13.588;2023-04-03T17:41:03;2.6;2.1;
56360;PMS7003;42611;51.132;13.588;2023-04-03T17:46:02;2.4;2.1;
56360;PMS7003;42611;51.132;13.588;2023-04-03T17:51:10;2.5;2.2;
56360;PMS7003;42611;51.132;13.588;2023-04-03T17:56:05;2.7;2.2;
56360;PMS7003;42611;51.132;13.588;2023-04-03T18:01:09;2.2;2.0;
56360;PMS7003;42611;51.132;13.588;2023-04-03T18:06:03;2.1;2.0;
56360;PMS7003;42611;51.132;13.588;2023-04-03T18:11:02;2.3;2.1;
56360;PMS7003;42611;51.132;13.588;2023-04-03T18:21:01;5.0;4.2;
56360;PMS7003;42611;51.132;13.588;2023-04-03T18:50:08;2.0;2.0;
56360;PMS7003;42611;51.132;13.588;2023-04-03T18:55:01;3.5;3.0;
56360;PMS7003;42611;51.132;13.588;2023-04-03T19:00:02;3.6;3.3;
56360;PMS7003;42611;51.132;13.588;2023-04-03T19:05:01;5.5;5.0;
56360;PMS7003;42611;51.132;13.588;2023-04-03T19:10:01;5.1;4.8;
56360;PMS7003;42611;51.132;13.588;2023-04-03T19:15:01;6.3;5.4;
56360;PMS7003;42611;51.132;13.588;2023-04-03T19:20:02;9.3;7.9;
56360;PMS7003;42611;51.132;13.588;2023-04-03T19:25:01;10.8;9.1;
56360;PMS7003;42611;51.132;13.588;2023-04-03T19:30:02;12.2;10.2;
56360;PMS7003;42611;51.132;13.588;2023-04-03T19:35:01;15.8;13.4;
56360;PMS7003;42611;51.132;13.588;2023-04-03T19:40:01;17.8;15.6;
56360;PMS7003;42611;51.132;13.588;2023-04-03T19:45:08;18.0;15.8;
56360;PMS7003;42611;51.132;13.588;2023-04-03T19:50:02;20.4;17.3;
56360;PMS7003;42611;51.132;13.588;2023-04-03T19:55:01;19.8;16.9;
56360;PMS7003;42611;51.132;13.588;2023-04-03T20:00:01;18.8;16.0;
56360;PMS7003;42611;51.132;13.588;2023-04-03T20:05:01;17.8;15.1;
56360;PMS7003;42611;51.132;13.588;2023-04-03T20:10:01;16.8;14.8;
56360;PMS7003;42611;51.132;13.588;2023-04-03T20:15:01;17.0;15.5;
56360;PMS7003;42611;51.132;13.588;2023-04-03T20:20:01;17.6;16.4;
56360;PMS7003;42611;51.132;13.588;2023-04-03T20:25:08;18.3;17.2;
56360;PMS7003;42611;51.132;13.588;2023-04-03T20:30:06;19.1;18.0;
56360;PMS7003;42611;51.132;13.588;2023-04-03T20:35:05;19.5;18.3;
56360;PMS7003;42611;51.132;13.588;2023-04-03T20:40:01;19.9;18.2;
56360;PMS7003;42611;51.132;13.588;2023-04-03T20:45:01;20.7;18.5;
56360;PMS7003;42611;51.132;13.588;2023-04-03T20:50:01;19.6;17.2;
56360;PMS7003;42611;51.132;13.588;2023-04-03T20:55:01;19.4;16.3;
56360;PMS7003;42611;51.132;13.588;2023-04-03T21:00:04;20.8;17.4;
56360;PMS7003;42611;51.132;13.588;2023-04-03T21:05:01;21.4;17.8;
56360;PMS7003;42611;51.132;13.588;2023-04-03T21:20:01;22.2;19.6;
56360;PMS7003;42611;51.132;13.588;2023-04-03T21:25:01;20.3;18.1;
56360;PMS7003;42611;51.132;13.588;2023-04-03T21:30:01;18.0;16.6;
56360;PMS7003;42611;51.132;13.588;2023-04-03T21:35:01;16.2;15.0;
56360;PMS7003;42611;51.132;13.588;2023-04-03T21:40:01;15.3;14.1;
56360;PMS7003;42611;51.132;13.588;2023-04-03T21:45:01;13.8;12.8;
56360;PMS7003;42611;51.132;13.588;2023-04-03T21:50:01;12.9;11.8;
56360;PMS7003;42611;51.132;13.588;2023-04-03T21:55:01;12.1;11.3;
56360;PMS7003;42611;51.132;13.588;2023-04-03T22:00:02;12.2;11.0;
56360;PMS7003;42611;51.132;13.588;2023-04-03T22:05:01;11.3;10.2;
56360;PMS7003;42611;51.132;13.588;2023-04-03T22:10:01;10.1;9.2;
56360;PMS7003;42611;51.132;13.588;2023-04-03T22:15:01;9.4;8.3;
56360;PMS7003;42611;51.132;13.588;2023-04-03T22:20:01;8.4;7.0;
56360;PMS7003;42611;51.132;13.588;2023-04-03T22:25:01;7.7;6.1;
56360;PMS7003;42611;51.132;13.588;2023-04-03T22:30:01;8.2;5.7;
56360;PMS7003;42611;51.132;13.588;2023-04-03T22:40:01;7.9;5.9;
56360;PMS7003;42611;51.132;13.588;2023-04-03T22:45:02;7.6;6.0;
56360;PMS7003;42611;51.132;13.588;2023-04-03T22:50:01;7.7;6.1;
56360;PMS7003;42611;51.132;13.588;2023-04-03T22:55:20;7.0;5.9;
56360;PMS7003;42611;51.132;13.588;2023-04-03T23:00:02;7.1;5.9;
56360;PMS7003;42611;51.132;13.588;2023-04-03T23:05:01;6.9;5.7;
56360;PMS7003;42611;51.132;13.588;2023-04-03T23:10:01;7.5;5.3;
56360;PMS7003;42611;51.132;13.588;2023-04-03T23:15:01;7.0;5.5;
56360;PMS7003;42611;51.132;13.588;2023-04-03T23:20:01;6.6;5.4;
56360;PMS7003;42611;51.132;13.588;2023-04-03T23:30:02;6.1;5.1;
56360;PMS7003;42611;51.132;13.588;2023-04-03T23:35:01;5.0;5.0;
56360;PMS7003;42611;51.132;13.588;2023-04-03T23:40:01;5.4;5.0;
56360;PMS7003;42611;51.132;13.588;2023-04-03T23:45:01;5.2;4.8;
56360;PMS7003;42611;51.132;13.588;2023-04-03T23:50:02;5.0;4.6;
56360;PMS7003;42611;51.132;13.588;2023-04-03T23:55:01;5.2;4.7;
